Time;durP1;ratioP1;P1;durP2;ratioP2;P2;SDS_P1;SDS_P2;PMS_P1;PMS_P2;Temp;Humidity;BMP_temperature;BMP_pressure;BME280_temperature;BME280_humidity;BME280_pressure;Samples;Min_cycle;Max_cycle;Signal;HPM_P1;HPM_P2
2022/11/07 00:02:04;;;;;;;7.78;6.95;;;;;;;;;;10137966;28;20044;-69
2022/11/07 00:06:57;;;;;;;7.40;6.00;;;;;;;;;;10142750;28;20067;-68
2022/11/07 00:11:51;;;;;;;6.82;5.80;;;;;;;;;;10144955;28;20052;-68
2022/11/07 00:16:46;;;;;;;7.20;6.28;;;;;;;;;;10150299;28;20105;-68
2022/11/07 00:21:40;;;;;;;11.55;6.10;;;;;;;;;;10149296;28;20132;-68
2022/11/07 00:26:33;;;;;;;6.47;5.85;;;;;;;;;;10149368;28;20056;-68
2022/11/07 00:31:28;;;;;;;7.13;5.60;;;;;;;;;;10154887;28;20076;-68
2022/11/07 00:36:25;;;;;;;7.88;6.35;;;;;;;;;;10148059;28;20056;-68
2022/11/07 00:41:19;;;;;;;7.68;5.95;;;;;;;;;;10149074;28;20082;-68
2022/11/07 00:46:15;;;;;;;6.35;5.75;;;;;;;;;;10149983;28;20053;-68
2022/11/07 00:51:10;;;;;;;8.45;6.32;;;;;;;;;;10148239;28;20095;-68
2022/11/07 00:56:06;;;;;;;7.88;6.38;;;;;;;;;;10148402;28;20045;-68
2022/11/07 01:01:06;;;;;;;6.57;5.85;;;;;;;;;;10161234;28;20048;-68
2022/11/07 01:06:01;;;;;;;8.20;6.90;;;;;;;;;;10149429;28;20495;-68
2022/11/07 01:10:55;;;;;;;7.00;5.57;;;;;;;;;;10153022;28;20063;-68
2022/11/07 01:15:49;;;;;;;8.63;5.40;;;;;;;;;;10146204;28;20419;-69
2022/11/07 01:20:42;;;;;;;6.72;5.50;;;;;;;;;;10148712;28;20498;-69
2022/11/07 01:25:37;;;;;;;7.30;6.25;;;;;;;;;;10148473;28;20060;-69
2022/11/07 01:30:30;;;;;;;6.07;5.47;;;;;;;;;;10146820;28;20049;-69
2022/11/07 01:35:24;;;;;;;8.93;5.13;;;;;;;;;;10147211;28;20055;-69
2022/11/07 01:40:18;;;;;;;7.75;5.72;;;;;;;;;;10147144;28;20106;-69
2022/11/07 01:45:19;;;;;;;8.38;5.13;;;;;;;;;;10147185;28;20052;-69
2022/11/07 01:50:13;;;;;;;16.08;5.65;;;;;;;;;;10158436;28;20051;-69
2022/11/07 01:55:22;;;;;;;6.22;4.53;;;;;;;;;;10146571;28;20102;-69
2022/11/07 02:00:17;;;;;;;7.10;5.70;;;;;;;;;;10128922;28;20080;-69
2022/11/07 02:05:32;;;;;;;9.02;5.30;;;;;;;;;;10146290;28;20048;-69
2022/11/07 02:10:26;;;;;;;6.05;5.30;;;;;;;;;;10136997;28;20454;-69
2022/11/07 02:15:20;;;;;;;6.50;5.65;;;;;;;;;;10132716;28;20048;-67
2022/11/07 02:20:13;;;;;;;7.72;5.95;;;;;;;;;;10145963;28;20391;-67
2022/11/07 02:25:14;;;;;;;5.72;4.97;;;;;;;;;;10145289;28;20060;-67
2022/11/07 02:30:14;;;;;;;7.85;5.40;;;;;;;;;;10155389;28;20155;-67
2022/11/07 02:35:45;;;;;;;7.40;5.88;;;;;;;;;;10150669;28;20052;-68
2022/11/07 02:40:39;;;;;;;8.00;5.07;;;;;;;;;;10136015;28;20060;-69
2022/11/07 02:45:35;;;;;;;4.82;4.40;;;;;;;;;;10152965;28;20090;-69
2022/11/07 02:50:27;;;;;;;7.03;5.20;;;;;;;;;;10146182;28;20157;-69
2022/11/07 02:55:21;;;;;;;4.68;4.07;;;;;;;;;;10164674;28;20044;-69
2022/11/07 03:00:14;;;;;;;5.45;4.60;;;;;;;;;;10152656;28;20075;-69
2022/11/07 03:05:08;;;;;;;5.35;4.85;;;;;;;;;;10153140;28;20048;-68
2022/11/07 03:10:01;;;;;;;6.78;4.45;;;;;;;;;;10152804;28;20067;-68
2022/11/07 03:14:55;;;;;;;4.25;3.50;;;;;;;;;;10134548;28;20087;-68
2022/11/07 03:19:49;;;;;;;7.50;3.63;;;;;;;;;;10151816;28;20041;-68
2022/11/07 03:24:42;;;;;;;6.50;3.88;;;;;;;;;;10163316;28;20067;-68
2022/11/07 03:29:35;;;;;;;5.53;3.95;;;;;;;;;;10152524;28;20097;-68
2022/11/07 03:34:30;;;;;;;8.43;3.92;;;;;;;;;;10151423;28;20055;-68
2022/11/07 03:39:24;;;;;;;4.55;3.95;;;;;;;;;;10150241;28;20123;-69
2022/11/07 03:44:18;;;;;;;5.50;3.92;;;;;;;;;;10140278;28;20045;-68
2022/11/07 03:49:12;;;;;;;5.00;4.38;;;;;;;;;;10151267;28;20079;-68
2022/11/07 03:54:06;;;;;;;5.32;4.82;;;;;;;;;;10150837;28;20110;-68
2022/11/07 03:58:59;;;;;;;5.13;4.50;;;;;;;;;;10150034;28;20076;-68
2022/11/07 04:03:52;;;;;;;5.38;4.55;;;;;;;;;;10161088;28;20056;-68
2022/11/07 04:08:48;;;;;;;5.57;4.20;;;;;;;;;;10151189;28;20519;-69
2022/11/07 04:18:54;;;;;;;5.38;4.32;;;;;;;;;;10149362;28;20479;-69
2022/11/07 04:23:47;;;;;;;5.25;3.83;;;;;;;;;;10149377;28;20479;-69
2022/11/07 04:28:41;;;;;;;4.60;3.15;;;;;;;;;;10149875;28;20047;-69
2022/11/07 04:33:34;;;;;;;3.47;3.17;;;;;;;;;;10149596;28;20044;-69
2022/11/07 04:38:27;;;;;;;4.03;3.22;;;;;;;;;;10148290;28;20080;-67
2022/11/07 04:43:21;;;;;;;3.20;2.90;;;;;;;;;;10148658;28;20048;-68
2022/11/07 04:48:15;;;;;;;4.93;3.00;;;;;;;;;;10148905;28;20410;-68
2022/11/07 04:53:12;;;;;;;4.63;3.60;;;;;;;;;;10148671;28;20056;-69
2022/11/07 04:58:06;;;;;;;5.70;3.28;;;;;;;;;;10147817;28;20048;-70
2022/11/07 05:03:00;;;;;;;3.83;3.17;;;;;;;;;;10148130;28;20048;-70
2022/11/07 05:07:54;;;;;;;4.70;3.25;;;;;;;;;;10149627;28;20061;-69
2022/11/07 05:12:48;;;;;;;3.55;3.17;;;;;;;;;;10147708;28;20412;-69
2022/11/07 05:17:42;;;;;;;5.05;2.97;;;;;;;;;;10147449;28;20529;-69
2022/11/07 05:27:48;;;;;;;4.32;3.38;;;;;;;;;;10146951;28;20056;-68
2022/11/07 05:32:42;;;;;;;3.00;2.80;;;;;;;;;;10147140;28;20068;-68
2022/11/07 05:37:36;;;;;;;4.38;2.70;;;;;;;;;;10149617;28;20411;-68
2022/11/07 05:42:30;;;;;;;3.33;3.03;;;;;;;;;;10147904;28;20407;-68
2022/11/07 05:47:24;;;;;;;4.07;3.03;;;;;;;;;;10146341;28;20132;-68
2022/11/07 05:52:18;;;;;;;4.43;3.20;;;;;;;;;;10149211;28;20049;-68
2022/11/07 05:57:11;;;;;;;3.40;3.10;;;;;;;;;;10148679;28;20491;-68
2022/11/07 06:02:05;;;;;;;4.78;3.55;;;;;;;;;;10154342;28;20052;-68
2022/11/07 06:06:59;;;;;;;5.07;2.85;;;;;;;;;;10158690;28;20116;-67
2022/11/07 06:11:52;;;;;;;7.45;3.85;;;;;;;;;;10165705;28;20503;-67
2022/11/07 06:16:46;;;;;;;3.58;2.75;;;;;;;;;;10157451;28;20052;-68
2022/11/07 06:21:41;;;;;;;6.10;4.43;;;;;;;;;;10166355;28;20082;-69
2022/11/07 06:26:35;;;;;;;5.55;3.17;;;;;;;;;;10153573;28;20056;-69
2022/11/07 06:31:29;;;;;;;4.90;3.88;;;;;;;;;;10154568;28;20455;-69
2022/11/07 06:36:22;;;;;;;4.70;3.25;;;;;;;;;;10151725;28;20044;-70
2022/11/07 06:41:16;;;;;;;4.88;3.72;;;;;;;;;;10150481;28;20055;-70
2022/11/07 06:46:11;;;;;;;4.10;3.58;;;;;;;;;;10153582;28;20044;-70
2022/11/07 06:51:06;;;;;;;6.63;3.85;;;;;;;;;;10160797;28;20058;-70
2022/11/07 06:56:00;;;;;;;3.50;3.13;;;;;;;;;;10171109;28;20045;-69
2022/11/07 07:00:57;;;;;;;4.38;3.38;;;;;;;;;;10159620;28;20546;-69
2022/11/07 07:05:52;;;;;;;7.43;4.65;;;;;;;;;;10158883;28;20061;-70
2022/11/07 07:10:45;;;;;;;8.13;4.07;;;;;;;;;;10151470;28;20045;-70
2022/11/07 07:15:40;;;;;;;7.18;5.60;;;;;;;;;;10151527;28;20056;-70
2022/11/07 07:20:43;;;;;;;9.85;5.88;;;;;;;;;;10150657;28;20048;-68
2022/11/07 07:25:37;;;;;;;9.73;6.43;;;;;;;;;;10162079;28;20129;-67
2022/11/07 07:30:31;;;;;;;7.40;5.68;;;;;;;;;;10157886;28;20044;-68
2022/11/07 07:35:24;;;;;;;7.85;5.97;;;;;;;;;;10155534;28;20051;-68
2022/11/07 07:40:19;;;;;;;9.73;6.43;;;;;;;;;;10146038;28;20061;-68
2022/11/07 07:45:14;;;;;;;5.93;5.30;;;;;;;;;;10149956;28;20048;-68
2022/11/07 07:50:10;;;;;;;16.33;7.88;;;;;;;;;;10150400;28;20132;-67
2022/11/07 07:55:07;;;;;;;7.47;5.70;;;;;;;;;;10150554;28;20406;-66
2022/11/07 08:00:02;;;;;;;12.75;6.28;;;;;;;;;;10155673;28;20051;-68
2022/11/07 08:05:02;;;;;;;9.77;7.85;;;;;;;;;;10172076;28;20473;-65
2022/11/07 08:09:56;;;;;;;11.73;8.15;;;;;;;;;;10163108;28;20048;-69
2022/11/07 08:14:54;;;;;;;8.95;7.53;;;;;;;;;;10134766;28;20064;-67
2022/11/07 08:19:48;;;;;;;9.45;8.40;;;;;;;;;;10132199;28;20045;-68
2022/11/07 08:24:42;;;;;;;11.25;8.63;;;;;;;;;;10136901;28;20099;-67
2022/11/07 08:29:36;;;;;;;11.40;8.88;;;;;;;;;;10123057;28;20052;-67
2022/11/07 08:34:30;;;;;;;11.90;9.73;;;;;;;;;;10134084;28;20049;-69
2022/11/07 08:39:28;;;;;;;10.93;8.57;;;;;;;;;;10131793;28;20044;-68
2022/11/07 08:44:22;;;;;;;15.15;9.40;;;;;;;;;;10144158;28;20541;-68
2022/11/07 08:49:15;;;;;;;13.95;9.85;;;;;;;;;;10146914;28;20495;-68
2022/11/07 08:54:10;;;;;;;11.75;10.02;;;;;;;;;;10139841;28;20065;-68
2022/11/07 08:59:04;;;;;;;17.30;11.25;;;;;;;;;;10150105;28;20040;-68
2022/11/07 09:03:58;;;;;;;10.27;9.18;;;;;;;;;;10147037;28;20126;-68
2022/11/07 09:08:53;;;;;;;13.27;10.65;;;;;;;;;;10165895;28;20427;-68
2022/11/07 09:13:48;;;;;;;14.40;11.35;;;;;;;;;;10157820;28;20101;-69
2022/11/07 09:18:43;;;;;;;13.73;10.93;;;;;;;;;;10121821;28;20052;-69
2022/11/07 09:23:37;;;;;;;11.50;9.98;;;;;;;;;;10119406;28;20057;-72
2022/11/07 09:28:31;;;;;;;11.35;10.05;;;;;;;;;;10138511;28;20382;-71
2022/11/07 09:33:25;;;;;;;11.73;10.50;;;;;;;;;;10139627;28;20040;-70
2022/11/07 09:38:19;;;;;;;15.18;10.80;;;;;;;;;;10110782;28;20063;-71
2022/11/07 09:43:40;;;;;;;11.88;10.18;;;;;;;;;;10137848;28;20603;-71
2022/11/07 09:48:48;;;;;;;11.15;10.05;;;;;;;;;;10126329;28;20251;-72
2022/11/07 09:54:05;;;;;;;11.85;10.63;;;;;;;;;;10119509;28;20060;-71
2022/11/07 09:59:05;;;;;;;11.30;10.10;;;;;;;;;;10118191;28;20040;-72
2022/11/07 10:04:05;;;;;;;15.32;12.02;;;;;;;;;;10131691;28;20040;-72
2022/11/07 10:09:32;;;;;;;11.63;10.43;;;;;;;;;;10118880;28;20048;-72
2022/11/07 10:14:31;;;;;;;10.98;9.23;;;;;;;;;;10139889;28;20574;-73
2022/11/07 10:19:59;;;;;;;11.98;10.45;;;;;;;;;;10145542;28;20068;-72
2022/11/07 10:24:58;;;;;;;12.68;10.65;;;;;;;;;;10133281;28;20079;-72
2022/11/07 10:29:53;;;;;;;16.65;10.98;;;;;;;;;;10136745;28;20040;-72
2022/11/07 10:34:52;;;;;;;12.73;9.90;;;;;;;;;;10150621;28;20045;-70
2022/11/07 10:39:47;;;;;;;12.10;10.00;;;;;;;;;;10124955;28;20173;-71
2022/11/07 10:44:41;;;;;;;13.25;11.10;;;;;;;;;;10137526;28;20506;-71
2022/11/07 10:49:36;;;;;;;12.52;11.23;;;;;;;;;;10136596;28;20056;-73
2022/11/07 10:54:30;;;;;;;15.95;11.32;;;;;;;;;;10141826;28;20102;-69
2022/11/07 10:59:26;;;;;;;15.30;11.70;;;;;;;;;;10143813;28;20053;-71
2022/11/07 11:04:30;;;;;;;16.45;11.88;;;;;;;;;;10143602;28;20101;-71
2022/11/07 11:09:30;;;;;;;14.65;10.13;;;;;;;;;;10143959;28;20059;-70
2022/11/07 11:14:26;;;;;;;14.32;11.73;;;;;;;;;;10113685;28;20487;-70
2022/11/07 11:19:23;;;;;;;13.52;12.10;;;;;;;;;;10113251;28;20040;-70
2022/11/07 11:24:22;;;;;;;15.10;13.18;;;;;;;;;;10111903;28;20064;-69
2022/11/07 11:29:50;;;;;;;12.85;11.48;;;;;;;;;;10108525;28;20049;-70
2022/11/07 11:34:54;;;;;;;18.85;12.65;;;;;;;;;;10111008;28;20040;-69
2022/11/07 11:39:50;;;;;;;19.52;14.55;;;;;;;;;;10119553;28;20090;-69
2022/11/07 11:44:44;;;;;;;15.95;12.85;;;;;;;;;;10141704;28;20476;-70
2022/11/07 11:49:50;;;;;;;16.85;14.05;;;;;;;;;;10129729;28;20397;-69
2022/11/07 11:54:43;;;;;;;17.27;14.80;;;;;;;;;;10136151;28;20194;-69
2022/11/07 11:59:55;;;;;;;18.33;14.27;;;;;;;;;;10142292;28;20133;-71
2022/11/07 12:05:03;;;;;;;15.32;12.82;;;;;;;;;;10138043;28;20479;-69
2022/11/07 12:10:02;;;;;;;14.88;13.15;;;;;;;;;;10137153;28;20495;-70
2022/11/07 12:15:33;;;;;;;17.98;14.88;;;;;;;;;;10128964;28;20091;-70
2022/11/07 12:20:27;;;;;;;19.67;13.90;;;;;;;;;;10129848;28;20127;-70
2022/11/07 12:25:43;;;;;;;15.98;13.73;;;;;;;;;;10141426;28;20083;-70
2022/11/07 12:30:42;;;;;;;16.30;13.38;;;;;;;;;;10134362;28;20044;-69
2022/11/07 12:35:38;;;;;;;17.83;15.68;;;;;;;;;;10137278;28;20411;-69
2022/11/07 12:41:07;;;;;;;19.92;15.52;;;;;;;;;;10138448;28;20052;-68
2022/11/07 12:46:30;;;;;;;22.75;15.23;;;;;;;;;;10139035;28;20044;-70
2022/11/07 12:51:42;;;;;;;21.05;16.40;;;;;;;;;;10119163;28;20118;-70
2022/11/07 12:56:36;;;;;;;26.67;17.85;;;;;;;;;;10132295;28;20076;-68
2022/11/07 13:02:00;;;;;;;24.23;16.92;;;;;;;;;;10117955;28;20098;-70
2022/11/07 13:07:31;;;;;;;26.70;15.38;;;;;;;;;;10116960;28;20045;-70
2022/11/07 13:13:01;;;;;;;19.30;14.60;;;;;;;;;;10138292;28;20167;-70
2022/11/07 13:17:55;;;;;;;17.50;14.27;;;;;;;;;;10145726;28;20045;-70
2022/11/07 13:22:49;;;;;;;22.17;16.08;;;;;;;;;;10145240;28;20075;-70
2022/11/07 13:27:45;;;;;;;27.60;14.40;;;;;;;;;;10146002;28;20132;-70
2022/11/07 13:32:48;;;;;;;21.23;16.67;;;;;;;;;;10146473;28;20048;-70
2022/11/07 13:37:46;;;;;;;16.85;13.50;;;;;;;;;;10145225;28;20052;-69
2022/11/07 13:42:41;;;;;;;22.30;15.63;;;;;;;;;;10135128;28;20479;-70
2022/11/07 13:47:38;;;;;;;21.83;13.85;;;;;;;;;;10146074;28;20071;-69
2022/11/07 13:52:39;;;;;;;18.65;14.95;;;;;;;;;;10117405;28;20053;-69
2022/11/07 13:57:39;;;;;;;21.15;15.25;;;;;;;;;;10127757;28;20083;-70
2022/11/07 14:02:34;;;;;;;20.35;13.43;;;;;;;;;;10145259;28;20050;-70
2022/11/07 14:07:36;;;;;;;17.35;12.50;;;;;;;;;;10142494;28;20125;-71
2022/11/07 14:12:29;;;;;;;17.58;13.27;;;;;;;;;;10137420;28;20576;-70
2022/11/07 14:17:27;;;;;;;19.63;13.80;;;;;;;;;;10123324;28;20059;-70
2022/11/07 14:22:25;;;;;;;14.45;13.00;;;;;;;;;;10120751;28;20094;-69
2022/11/07 14:27:20;;;;;;;16.10;13.77;;;;;;;;;;10141977;28;20102;-69
2022/11/07 14:32:15;;;;;;;18.98;14.15;;;;;;;;;;10146398;28;20048;-68
2022/11/07 14:37:14;;;;;;;18.40;13.80;;;;;;;;;;10146644;28;20083;-73
2022/11/07 14:42:09;;;;;;;18.57;14.13;;;;;;;;;;10145011;28;20488;-69
2022/11/07 14:47:03;;;;;;;21.27;16.17;;;;;;;;;;10146679;28;20657;-70
2022/11/07 14:51:57;;;;;;;19.63;14.95;;;;;;;;;;10123727;28;20037;-70
2022/11/07 14:56:54;;;;;;;21.35;13.93;;;;;;;;;;10141505;28;20036;-71
2022/11/07 15:02:22;;;;;;;17.15;13.05;;;;;;;;;;10130839;28;20051;-69
2022/11/07 15:07:27;;;;;;;20.92;13.95;;;;;;;;;;10142103;28;20052;-70
2022/11/07 15:12:27;;;;;;;17.38;12.75;;;;;;;;;;10140540;28;20147;-70
2022/11/07 15:17:24;;;;;;;16.15;13.68;;;;;;;;;;10142731;28;20135;-70
2022/11/07 15:22:51;;;;;;;21.50;16.60;;;;;;;;;;10136451;28;20506;-69
2022/11/07 15:27:45;;;;;;;24.13;16.25;;;;;;;;;;10149258;28;20242;-70
2022/11/07 15:32:41;;;;;;;23.50;17.85;;;;;;;;;;10150888;28;20127;-70
2022/11/07 15:37:35;;;;;;;27.52;17.58;;;;;;;;;;10146912;28;20094;-70
2022/11/07 15:42:31;;;;;;;23.98;18.63;;;;;;;;;;10156130;28;20044;-69
2022/11/07 15:47:25;;;;;;;19.80;16.85;;;;;;;;;;10156295;28;20090;-69
2022/11/07 15:52:18;;;;;;;19.75;16.17;;;;;;;;;;10150144;28;20064;-71
2022/11/07 15:57:12;;;;;;;22.30;16.17;;;;;;;;;;10152181;28;20442;-70
2022/11/07 16:02:14;;;;;;;23.63;15.88;;;;;;;;;;10125725;28;20056;-71
2022/11/07 16:07:15;;;;;;;26.35;15.95;;;;;;;;;;10133385;28;20047;-71
2022/11/07 16:12:11;;;;;;;26.33;17.67;;;;;;;;;;10125860;28;20056;-72
2022/11/07 16:17:04;;;;;;;22.13;16.77;;;;;;;;;;10122501;28;20043;-69
2022/11/07 16:21:56;;;;;;;33.95;27.50;;;;;;;;;;10143105;28;20056;-70
2022/11/07 16:26:50;;;;;;;26.38;19.63;;;;;;;;;;10140091;28;20072;-70
2022/11/07 16:31:44;;;;;;;24.50;17.50;;;;;;;;;;10139700;28;20507;-70
2022/11/07 16:36:39;;;;;;;30.02;19.50;;;;;;;;;;10140374;28;20175;-69
2022/11/07 16:41:33;;;;;;;28.77;23.52;;;;;;;;;;10147405;28;20090;-70
2022/11/07 16:46:28;;;;;;;28.67;21.77;;;;;;;;;;10151456;28;20083;-72
2022/11/07 16:51:22;;;;;;;29.60;19.55;;;;;;;;;;10149652;28;20045;-70
2022/11/07 16:56:28;;;;;;;24.85;18.75;;;;;;;;;;10146235;28;20052;-71
2022/11/07 17:01:22;;;;;;;21.88;16.63;;;;;;;;;;10129243;28;20407;-71
2022/11/07 17:06:30;;;;;;;80.80;62.97;;;;;;;;;;10141680;28;20083;-71
2022/11/07 17:11:24;;;;;;;30.10;24.17;;;;;;;;;;10125185;28;20049;-70
2022/11/07 17:16:23;;;;;;;25.35;18.85;;;;;;;;;;10140594;28;20486;-71
2022/11/07 17:21:21;;;;;;;30.40;19.77;;;;;;;;;;10124820;28;20083;-71
2022/11/07 17:26:19;;;;;;;36.13;23.27;;;;;;;;;;10139590;28;20176;-71
2022/11/07 17:31:12;;;;;;;35.67;24.95;;;;;;;;;;10138620;28;20072;-71
2022/11/07 17:36:28;;;;;;;35.95;24.23;;;;;;;;;;10134751;28;20098;-71
2022/11/07 17:41:28;;;;;;;34.72;23.48;;;;;;;;;;10119857;28;20048;-71
2022/11/07 17:46:25;;;;;;;37.13;24.58;;;;;;;;;;10132771;28;20052;-71
2022/11/07 17:51:19;;;;;;;41.10;24.25;;;;;;;;;;10147772;28;20052;-70
2022/11/07 17:56:18;;;;;;;34.53;23.23;;;;;;;;;;10139309;28;20702;-72
2022/11/07 18:01:20;;;;;;;37.07;24.37;;;;;;;;;;10144825;28;20099;-69
2022/11/07 18:06:14;;;;;;;38.67;24.05;;;;;;;;;;10134044;28;20412;-69
2022/11/07 18:11:07;;;;;;;44.28;26.75;;;;;;;;;;10141561;28;20102;-72
2022/11/07 18:16:09;;;;;;;31.50;23.70;;;;;;;;;;10137614;28;20055;-72
2022/11/07 18:21:03;;;;;;;32.97;23.70;;;;;;;;;;10143312;28;20052;-71
2022/11/07 18:26:10;;;;;;;36.15;26.77;;;;;;;;;;10143308;28;20051;-72
2022/11/07 18:31:12;;;;;;;43.22;29.10;;;;;;;;;;10145530;28;20498;-73
2022/11/07 18:36:08;;;;;;;41.03;30.27;;;;;;;;;;10145312;28;20388;-74
2022/11/07 18:41:03;;;;;;;38.90;29.23;;;;;;;;;;10158107;28;20041;-67
2022/11/07 18:45:56;;;;;;;41.03;27.10;;;;;;;;;;10144520;28;20052;-67
2022/11/07 18:50:49;;;;;;;39.20;27.58;;;;;;;;;;10139176;28;20079;-68
2022/11/07 18:55:43;;;;;;;38.13;27.95;;;;;;;;;;10144711;28;20495;-70
2022/11/07 19:00:37;;;;;;;36.05;27.27;;;;;;;;;;10145060;28;20090;-73
2022/11/07 19:05:31;;;;;;;36.03;26.55;;;;;;;;;;10144614;28;20053;-73
2022/11/07 19:10:30;;;;;;;32.17;24.07;;;;;;;;;;10147017;28;20194;-75
2022/11/07 19:15:27;;;;;;;33.08;22.45;;;;;;;;;;10134544;28;20037;-73
2022/11/07 19:20:21;;;;;;;31.13;26.38;;;;;;;;;;10152376;28;20072;-73
2022/11/07 19:25:17;;;;;;;43.70;28.90;;;;;;;;;;10143703;28;20048;-73
2022/11/07 19:30:14;;;;;;;54.00;35.72;;;;;;;;;;10144040;28;20122;-72
2022/11/07 19:35:08;;;;;;;47.88;36.75;;;;;;;;;;10142632;28;20066;-74
2022/11/07 19:40:03;;;;;;;58.85;44.72;;;;;;;;;;10142731;28;20048;-75
2022/11/07 19:44:56;;;;;;;61.00;44.63;;;;;;;;;;10139152;28;20053;-75
2022/11/07 19:49:51;;;;;;;53.67;39.75;;;;;;;;;;10142886;28;20055;-77
2022/11/07 19:54:46;;;;;;;52.40;36.03;;;;;;;;;;10141999;28;20055;-77
2022/11/07 19:59:40;;;;;;;39.05;33.78;;;;;;;;;;10107507;28;20060;-76
2022/11/07 20:04:33;;;;;;;41.35;31.73;;;;;;;;;;10136108;28;20094;-77
2022/11/07 20:09:27;;;;;;;38.58;29.52;;;;;;;;;;10144665;28;20056;-73
2022/11/07 20:14:20;;;;;;;39.47;26.95;;;;;;;;;;10151984;28;20074;-73
2022/11/07 20:19:14;;;;;;;39.13;28.05;;;;;;;;;;10137803;28;20083;-72
2022/11/07 20:24:08;;;;;;;44.17;28.63;;;;;;;;;;10139957;28;20057;-72
2022/11/07 20:29:02;;;;;;;42.55;32.83;;;;;;;;;;10124688;28;20049;-72
2022/11/07 20:34:00;;;;;;;36.97;28.85;;;;;;;;;;10136483;28;20076;-69
2022/11/07 20:38:54;;;;;;;36.05;29.48;;;;;;;;;;10140870;28;20056;-69
2022/11/07 20:43:53;;;;;;;37.97;28.98;;;;;;;;;;10140385;28;20143;-68
2022/11/07 20:48:47;;;;;;;39.17;32.20;;;;;;;;;;10141765;28;20056;-71
2022/11/07 20:53:40;;;;;;;39.13;31.27;;;;;;;;;;10143661;28;20040;-68
2022/11/07 20:58:42;;;;;;;32.85;26.98;;;;;;;;;;10141675;28;20048;-69
2022/11/07 21:03:35;;;;;;;29.80;26.38;;;;;;;;;;10140656;28;20044;-68
2022/11/07 21:08:29;;;;;;;33.60;27.35;;;;;;;;;;10141696;28;20094;-69
2022/11/07 21:13:29;;;;;;;37.33;27.25;;;;;;;;;;10141526;28;20435;-69
2022/11/07 21:18:23;;;;;;;37.35;27.83;;;;;;;;;;10145487;28;20048;-69
2022/11/07 21:23:17;;;;;;;32.25;27.52;;;;;;;;;;10142620;28;20487;-70
2022/11/07 21:28:16;;;;;;;34.85;29.95;;;;;;;;;;10141595;28;20143;-69
2022/11/07 21:33:09;;;;;;;41.30;32.40;;;;;;;;;;10135075;28;20040;-68
2022/11/07 21:38:02;;;;;;;38.40;29.73;;;;;;;;;;10138105;28;20049;-69
2022/11/07 21:42:56;;;;;;;30.83;23.08;;;;;;;;;;10136847;28;20056;-68
2022/11/07 21:47:50;;;;;;;25.92;20.50;;;;;;;;;;10138681;28;20236;-68
2022/11/07 21:52:44;;;;;;;27.85;22.55;;;;;;;;;;10142222;28;20139;-69
2022/11/07 21:57:38;;;;;;;26.38;21.75;;;;;;;;;;10140755;28;20045;-69
2022/11/07 22:02:31;;;;;;;24.13;19.90;;;;;;;;;;10140432;28;20127;-70
2022/11/07 22:07:25;;;;;;;28.05;21.92;;;;;;;;;;10140068;28;20454;-70
2022/11/07 22:12:19;;;;;;;25.40;21.17;;;;;;;;;;10138436;28;20049;-69
2022/11/07 22:17:13;;;;;;;25.45;18.98;;;;;;;;;;10137929;28;20048;-70
2022/11/07 22:22:08;;;;;;;25.50;21.75;;;;;;;;;;10142114;28;20048;-71
2022/11/07 22:27:02;;;;;;;24.42;19.67;;;;;;;;;;10136614;28;20084;-72
2022/11/07 22:31:57;;;;;;;25.92;20.30;;;;;;;;;;10133389;28;20052;-71
2022/11/07 22:36:53;;;;;;;27.85;20.27;;;;;;;;;;10133349;28;20139;-71
2022/11/07 22:41:46;;;;;;;26.05;20.27;;;;;;;;;;10137973;28;20056;-69
2022/11/07 22:46:40;;;;;;;25.33;18.85;;;;;;;;;;10140732;28;20565;-69
2022/11/07 22:51:34;;;;;;;22.00;18.17;;;;;;;;;;10143539;28;20479;-69
2022/11/07 22:56:28;;;;;;;19.98;16.73;;;;;;;;;;10148210;28;20047;-69
2022/11/07 23:01:24;;;;;;;25.02;20.95;;;;;;;;;;10146725;28;20178;-69
2022/11/07 23:06:18;;;;;;;28.63;20.70;;;;;;;;;;10149729;28;20058;-69
2022/11/07 23:11:16;;;;;;;23.02;19.27;;;;;;;;;;10147183;28;20113;-70
2022/11/07 23:16:32;;;;;;;22.17;19.45;;;;;;;;;;10148664;28;20040;-69
2022/11/07 23:21:25;;;;;;;22.20;19.13;;;;;;;;;;10146946;28;20415;-70
2022/11/07 23:26:18;;;;;;;21.90;18.38;;;;;;;;;;10141274;28;20053;-69
2022/11/07 23:31:12;;;;;;;19.58;17.40;;;;;;;;;;10144565;28;20052;-69
2022/11/07 23:36:15;;;;;;;22.15;17.33;;;;;;;;;;10142847;28;20049;-70
2022/11/07 23:41:11;;;;;;;21.15;17.70;;;;;;;;;;10132729;28;20059;-69
2022/11/07 23:51:17;;;;;;;19.58;17.50;;;;;;;;;;10144158;28;20062;-70
2022/11/07 23:56:10;;;;;;;30.20;18.75;;;;;;;;;;10142868;28;20483;-70
